Sligo Airport - TAF
(Terminal Area Forecast)

Issued at 06:21 UTC on Fri. 19-Apr-19

--- METARS(SA) ---

METAR EISG(SLIGO) 190600Z AUTO VRB03KT 5000 BR NSC 11/08 Q1025 =

--- TAFS() ---

TAF EISG(SLIGO) 190500Z 1906/1915 VRB03KT 5000 BR FEW015 BECMG

1906/1909 15010KT 99999 NSW =

--- SIGMETS(WS) ---

IE - No VALID SIGMETS/Warnings FOR THIS AREA

--- SIGMETS Volcanic(WV) ---

IE - No VALID SIGMETS/Warnings FOR THIS AREA

--- SIGMETS(WS) ---

UK - No VALID SIGMETS/Warnings FOR THIS AREA

Sligo Airport - METARs

Latest METARs for Sligo and Donegal Airports - updated every 30 mins